Franzen, Wisconsin
Current Conditions -  °F | °C
As of 4:15 AM on Tuesday 21 Oct 2014 (Local Time) from KAIG Reporting Station
Overcast Overcast  
Wind Chill:   Ceiling: 1700
Heat Index:   Visibility: 10mi
Dew Point:   Wind: 14mph
Humidity: 82%   Direction: 10°N
Pressure: 30.12"   Gusts: 18mph
Location:  44.8179°N, 89.172°W
Report Text: KAIG 210915Z AUTO 01012G16KT 10SM OVC017 04/01 A3012 RMK AO2 T00400012
Loading
Personal Weather Stations






























Interactive Weather Map
Tropical Storm Tracking
New forecast layout! Learn more

10-Day Weather Forecast

Advertisements
Track Severe Weather on mobile